createdAt,value
2018-08-23T07:56:22.045Z,101174.97
2018-08-23T07:59:27.825Z,101174.42
2018-08-23T08:02:33.375Z,101171.90
2018-08-23T08:05:41.298Z,101181.03
2018-08-23T08:08:46.933Z,101180.42
2018-08-23T08:11:57.893Z,101182.42
2018-08-23T08:15:03.504Z,101180.89
2018-08-23T08:18:22.880Z,101188.76
2018-08-23T08:21:28.325Z,101185.54
2018-08-23T08:24:33.722Z,101187.92
2018-08-23T08:27:39.863Z,101189.52
2018-08-23T08:30:46.986Z,101179.09
2018-08-23T08:33:56.782Z,101172.56
2018-08-23T08:37:02.151Z,101169.48
2018-08-23T08:40:12.262Z,101176.64
2018-08-23T08:43:17.856Z,101178.14
2018-08-23T08:46:23.334Z,101173.95
2018-08-23T08:49:31.417Z,101166.48
2018-08-23T08:52:37.094Z,101172.25
2018-08-23T08:55:45.161Z,101161.83
2018-08-23T08:58:52.054Z,101160.06
2018-08-23T09:01:57.637Z,101147.53
2018-08-23T09:05:03.082Z,101153.78
2018-08-23T09:08:08.473Z,101151.13
2018-08-23T09:11:13.874Z,101141.25
2018-08-23T09:14:21.283Z,101139.36
2018-08-23T09:17:40.998Z,101138.08
2018-08-23T09:20:46.489Z,101135.44
2018-08-23T09:23:52.906Z,101131.33
2018-08-23T09:26:58.275Z,101127.77
2018-08-23T09:30:03.714Z,101124.48
2018-08-23T09:33:10.775Z,101123.78
2018-08-23T09:36:16.325Z,101123.34
2018-08-23T09:39:21.721Z,101113.23
2018-08-23T09:42:31.237Z,101114.38
2018-08-23T09:45:37.542Z,101118.00
2018-08-23T09:48:42.998Z,101110.41
2018-08-23T09:51:48.375Z,101115.00
2018-08-23T09:54:53.790Z,101111.16
2018-08-23T09:57:59.611Z,101106.66
2018-08-23T10:01:10.114Z,101100.80
2018-08-23T10:04:21.021Z,101098.26
2018-08-23T10:07:31.883Z,101093.44
2018-08-23T10:10:42.425Z,101103.14
2018-08-23T10:13:53.208Z,101092.81
2018-08-23T10:17:03.642Z,101087.33
2018-08-23T10:20:14.281Z,101086.80
2018-08-23T10:23:23.045Z,101073.63
2018-08-23T10:26:33.927Z,101077.67
2018-08-23T10:29:39.478Z,101072.70
2018-08-23T10:32:44.860Z,101059.34
2018-08-23T10:35:53.435Z,101068.69
2018-08-23T10:38:58.786Z,101065.67
2018-08-23T10:42:06.625Z,101058.36
2018-08-23T10:45:12.350Z,101060.34
2018-08-23T10:48:19.506Z,101049.33
2018-08-23T10:51:24.927Z,101056.82
2018-08-23T10:54:30.350Z,101046.98
2018-08-23T10:57:36.230Z,101048.95
2018-08-23T11:00:42.170Z,101044.18
2018-08-23T11:03:47.648Z,101049.53
2018-08-23T11:07:00.170Z,101039.32
2018-08-23T11:10:10.958Z,101040.47
2018-08-23T11:13:21.794Z,101036.17
2018-08-23T11:16:32.280Z,101038.06
2018-08-23T11:19:42.808Z,101038.91
2018-08-23T11:22:48.321Z,101031.08
2018-08-23T11:25:53.790Z,101038.52
2018-08-23T11:28:59.182Z,101035.29
2018-08-23T11:32:04.653Z,101030.25
2018-08-23T11:35:10.332Z,101023.11
2018-08-23T11:38:16.570Z,101018.95
2018-08-23T11:41:22.722Z,101021.24
2018-08-23T11:44:28.284Z,101023.92
2018-08-23T11:47:33.738Z,101027.52
2018-08-23T11:50:39.469Z,101026.14
2018-08-23T11:53:45.513Z,101033.73
2018-08-23T11:56:51.100Z,101027.45
2018-08-23T11:59:56.462Z,101030.53
2018-08-23T12:03:01.846Z,101028.22
2018-08-23T12:06:08.298Z,101019.73
2018-08-23T12:09:13.690Z,101029.22
2018-08-23T12:12:19.390Z,101020.02
2018-08-23T12:15:32.996Z,101009.30
2018-08-23T12:18:39.259Z,101006.50
2018-08-23T12:21:44.655Z,101007.94
2018-08-23T12:24:50.107Z,101007.14
2018-08-23T12:28:00.762Z,101004.67
2018-08-23T12:31:06.194Z,101007.88
2018-08-23T12:34:11.615Z,101010.80
2018-08-23T12:37:22.298Z,101002.72
2018-08-23T12:40:34.515Z,101001.22
2018-08-23T12:43:46.888Z,100995.63
2018-08-23T12:46:56.442Z,100999.81
2018-08-23T12:50:03.910Z,101007.47
2018-08-23T12:53:09.343Z,100993.58
2018-08-23T12:56:14.773Z,100991.22
2018-08-23T12:59:20.398Z,101003.97
2018-08-23T13:02:26.035Z,100995.17
2018-08-23T13:05:31.610Z,100989.40
2018-08-23T13:08:37.006Z,100984.00
2018-08-23T13:11:42.427Z,100974.30
2018-08-23T13:14:47.825Z,100974.55
2018-08-23T13:17:53.691Z,100969.94
2018-08-23T13:20:59.208Z,100963.99
2018-08-23T13:24:05.137Z,100959.77
2018-08-23T13:27:10.574Z,100961.51
2018-08-23T13:30:16.033Z,100949.65
2018-08-23T13:33:21.820Z,100940.11
2018-08-23T13:36:27.299Z,100936.35
2018-08-23T13:39:32.786Z,100931.49
2018-08-23T13:42:38.301Z,100930.45
2018-08-23T13:45:43.898Z,100924.81
2018-08-23T13:48:49.274Z,100919.47
2018-08-23T13:51:54.652Z,100919.61
2018-08-23T13:55:00.135Z,100914.42
2018-08-23T13:58:05.529Z,100914.24
2018-08-23T14:01:10.930Z,100914.94
2018-08-23T14:04:16.474Z,100913.22
2018-08-23T14:07:21.985Z,100901.42
2018-08-23T14:10:27.580Z,100906.31
2018-08-23T14:13:33.077Z,100897.33
2018-08-23T14:16:38.465Z,100897.97
2018-08-23T14:19:44.655Z,100897.58
2018-08-23T14:22:50.223Z,100892.66
2018-08-23T14:25:56.258Z,100898.80
2018-08-23T14:29:01.719Z,100897.45
2018-08-23T14:32:07.693Z,100893.19
2018-08-23T14:35:13.149Z,100882.88
2018-08-23T14:38:18.556Z,100892.61
2018-08-23T14:41:24.324Z,100878.55
2018-08-23T14:44:29.827Z,100886.31
2018-08-23T14:47:40.270Z,100883.15
2018-08-23T14:50:45.693Z,100877.98
2018-08-23T14:53:51.311Z,100880.83
2018-08-23T14:57:01.869Z,100883.69
2018-08-23T15:00:07.462Z,100876.93
2018-08-23T15:03:12.977Z,100877.17
2018-08-23T15:06:18.362Z,100872.52
2018-08-23T15:09:28.074Z,100870.97
2018-08-23T15:12:33.481Z,100886.60
2018-08-23T15:15:44.074Z,100883.96
2018-08-23T15:18:49.426Z,100874.94
2018-08-23T15:21:54.814Z,100876.95
2018-08-23T15:25:01.292Z,100872.30
2018-08-23T15:28:07.706Z,100871.64
2018-08-23T15:31:13.113Z,100869.17
2018-08-23T15:34:18.546Z,100868.77
2018-08-23T15:37:23.958Z,100866.44
2018-08-23T15:40:29.332Z,100872.31
2018-08-23T15:43:34.862Z,100868.62
2018-08-23T15:46:43.286Z,100863.13
2018-08-23T15:49:48.636Z,100859.06
2018-08-23T15:52:55.038Z,100864.03
2018-08-23T15:56:00.473Z,100865.06
2018-08-23T15:59:06.035Z,100863.43
2018-08-23T16:02:11.406Z,100859.50
2018-08-23T16:05:17.278Z,100861.89
2018-08-23T16:08:22.874Z,100863.64
2018-08-23T16:11:28.305Z,100860.64
2018-08-23T16:14:33.688Z,100853.95
2018-08-23T16:17:44.271Z,100855.98
2018-08-23T16:20:54.346Z,100856.05
2018-08-23T16:23:59.778Z,100850.57
2018-08-23T16:27:06.351Z,100848.78
2018-08-23T16:30:12.082Z,100846.69
2018-08-23T16:33:17.582Z,100853.72
2018-08-23T16:36:23.012Z,100856.08
2018-08-23T16:39:28.912Z,100853.61
2018-08-23T16:42:34.341Z,100842.94
2018-08-23T16:45:39.709Z,100845.67
2018-08-23T16:48:45.113Z,100843.99
2018-08-23T16:51:50.774Z,100844.70
2018-08-23T16:54:56.250Z,100844.23
2018-08-23T16:58:01.616Z,100843.53
2018-08-23T17:01:07.138Z,100842.73
2018-08-23T17:04:12.580Z,100843.16
2018-08-23T17:07:18.428Z,100844.86
2018-08-23T17:10:23.773Z,100845.03
2018-08-23T17:13:34.314Z,100841.86
2018-08-23T17:16:45.366Z,100842.54
2018-08-23T17:19:50.743Z,100840.72
2018-08-23T17:22:56.146Z,100841.08
2018-08-23T17:26:01.559Z,100840.91
2018-08-23T17:29:06.949Z,100840.89
2018-08-23T17:32:12.350Z,100835.56
2018-08-23T17:35:17.757Z,100836.08
2018-08-23T17:38:23.183Z,100833.59
2018-08-23T17:41:28.794Z,100829.27
2018-08-23T17:44:34.431Z,100824.45
2018-08-23T17:47:39.834Z,100824.94
2018-08-23T17:50:45.225Z,100823.56
2018-08-23T17:53:50.777Z,100823.24
2018-08-23T17:56:56.409Z,100813.06
2018-08-23T18:00:01.782Z,100817.56
2018-08-23T18:03:07.465Z,100809.91
2018-08-23T18:06:12.872Z,100808.23
2018-08-23T18:09:18.309Z,100803.58
2018-08-23T18:12:23.701Z,100803.56
2018-08-23T18:16:32.157Z,100797.57
2018-08-23T18:19:37.547Z,100796.23
2018-08-23T18:22:43.073Z,100794.58
2018-08-23T18:25:48.556Z,100793.07
2018-08-23T18:28:53.986Z,100795.91
2018-08-23T18:32:02.081Z,100797.38
2018-08-23T18:35:07.706Z,100796.89
2018-08-23T18:38:13.333Z,100795.66
2018-08-23T18:41:18.706Z,100795.11
2018-08-23T18:44:24.142Z,100800.24
2018-08-23T18:47:29.543Z,100794.40
2018-08-23T18:50:34.910Z,100792.03
2018-08-23T18:53:40.296Z,100798.32
2018-08-23T18:56:45.657Z,100794.16
2018-08-23T18:59:51.116Z,100799.11
2018-08-23T19:02:56.682Z,100798.75
2018-08-23T19:06:02.043Z,100794.77
2018-08-23T19:09:13.754Z,100797.39
2018-08-23T19:12:19.192Z,100800.86
2018-08-23T19:15:29.746Z,100797.84
2018-08-23T19:18:35.546Z,100795.51
2018-08-23T19:21:41.093Z,100795.61
2018-08-23T19:24:46.511Z,100793.37
2018-08-23T19:27:51.894Z,100795.19
2018-08-23T19:30:57.761Z,100796.02
2018-08-23T19:34:03.342Z,100796.19
2018-08-23T19:37:08.756Z,100794.81
2018-08-23T19:40:14.322Z,100790.14
2018-08-23T19:43:19.723Z,100788.99
2018-08-23T19:46:31.757Z,100791.78
2018-08-23T19:49:42.369Z,100790.13
2018-08-23T19:52:47.750Z,100784.98
2018-08-23T19:55:53.138Z,100779.03
2018-08-23T19:58:58.506Z,100782.52
2018-08-23T20:02:03.980Z,100781.69
2018-08-23T20:05:09.397Z,100777.02
2018-08-23T20:08:14.814Z,100768.38
2018-08-23T20:11:20.194Z,100771.36
2018-08-23T20:14:25.592Z,100772.05
2018-08-23T20:17:30.954Z,100765.05
2018-08-23T20:20:36.374Z,100768.83
2018-08-23T20:23:41.903Z,100764.84
2018-08-23T20:26:47.265Z,100772.44
2018-08-23T20:29:52.645Z,100765.98
2018-08-23T20:32:58.039Z,100762.50
2018-08-23T20:36:03.446Z,100762.97
2018-08-23T20:39:12.396Z,100762.76
2018-08-23T20:42:17.983Z,100765.05
2018-08-23T20:45:23.390Z,100758.40
2018-08-23T20:48:28.807Z,100760.72
2018-08-23T20:51:34.213Z,100753.41
2018-08-23T20:54:39.735Z,100750.39
2018-08-23T20:57:45.953Z,100751.25
2018-08-23T21:00:51.341Z,100754.65
2018-08-23T21:03:56.761Z,100752.72
2018-08-23T21:07:02.137Z,100755.42
2018-08-23T21:10:07.577Z,100751.45
2018-08-23T21:13:13.001Z,100745.28
2018-08-23T21:16:18.445Z,100739.05
2018-08-23T21:19:23.833Z,100741.25
2018-08-23T21:22:29.309Z,100741.95
2018-08-23T21:25:34.698Z,100737.84
2018-08-23T21:28:40.041Z,100731.08
2018-08-23T21:31:45.417Z,100736.06
2018-08-23T21:34:50.840Z,100738.41
2018-08-23T21:37:56.259Z,100735.90
2018-08-23T21:41:01.638Z,100733.30
2018-08-23T21:44:07.111Z,100742.08
2018-08-23T21:47:12.653Z,100732.47
2018-08-23T21:50:18.510Z,100741.63
2018-08-23T21:53:23.893Z,100744.19
2018-08-23T21:56:29.278Z,100737.79
2018-08-23T21:59:34.793Z,100735.97
2018-08-23T22:02:40.613Z,100736.46
2018-08-23T22:05:46.033Z,100735.78
2018-08-23T22:08:51.451Z,100741.58
2018-08-23T22:11:56.982Z,100744.89
2018-08-23T22:15:02.478Z,100739.25
2018-08-23T22:18:08.075Z,100733.62
2018-08-23T22:21:13.483Z,100728.15
2018-08-23T22:24:18.902Z,100730.47
2018-08-23T22:27:24.331Z,100729.65
2018-08-23T22:30:29.742Z,100722.20
2018-08-23T22:33:35.496Z,100725.95
2018-08-23T22:36:40.877Z,100724.34
2018-08-23T22:39:46.247Z,100732.30
2018-08-23T22:42:51.714Z,100724.34
2018-08-23T22:45:57.151Z,100722.89
2018-08-23T22:49:02.525Z,100723.41
2018-08-23T22:52:07.934Z,100719.18
2018-08-23T22:55:13.281Z,100717.36
2018-08-23T22:58:18.668Z,100707.44
2018-08-23T23:01:24.369Z,100711.91
2018-08-23T23:04:30.026Z,100701.12
2018-08-23T23:07:35.421Z,100698.61
2018-08-23T23:10:41.058Z,100697.05
2018-08-23T23:16:54.127Z,100692.52
2018-08-23T23:19:59.566Z,100677.68
2018-08-23T23:23:05.053Z,100686.16
2018-08-23T23:26:10.469Z,100679.03
2018-08-23T23:29:15.937Z,100682.49
2018-08-23T23:32:21.363Z,100681.28
2018-08-23T23:35:26.724Z,100673.45
2018-08-23T23:38:32.142Z,100674.86
2018-08-23T23:41:37.690Z,100676.19
2018-08-23T23:44:43.207Z,100665.69
2018-08-23T23:47:48.741Z,100662.66
2018-08-23T23:50:54.137Z,100659.81
2018-08-23T23:53:59.606Z,100662.68
2018-08-23T23:57:05.201Z,100655.38
